sensor_id;sensor_type;location;lat;lon;timestamp;P1;durP1;ratioP1;P2;durP2;ratioP2
1829;SDS011;914;48.118;11.600;2022-07-24T00:01:24;8.75;;;7.85;;
1829;SDS011;914;48.118;11.600;2022-07-24T00:03:50;8.38;;;7.68;;
1829;SDS011;914;48.118;11.600;2022-07-24T00:06:15;8.27;;;7.47;;
1829;SDS011;914;48.118;11.600;2022-07-24T00:08:41;7.82;;;7.05;;
1829;SDS011;914;48.118;11.600;2022-07-24T00:11:07;7.90;;;7.30;;
1829;SDS011;914;48.118;11.600;2022-07-24T00:13:33;8.52;;;7.72;;
1829;SDS011;914;48.118;11.600;2022-07-24T00:15:58;8.18;;;7.38;;
1829;SDS011;914;48.118;11.600;2022-07-24T00:18:24;8.18;;;7.50;;
1829;SDS011;914;48.118;11.600;2022-07-24T00:20:49;8.10;;;7.47;;
1829;SDS011;914;48.118;11.600;2022-07-24T00:23:15;8.30;;;7.50;;
1829;SDS011;914;48.118;11.600;2022-07-24T00:25:41;8.57;;;7.78;;
1829;SDS011;914;48.118;11.600;2022-07-24T00:28:06;9.07;;;8.23;;
1829;SDS011;914;48.118;11.600;2022-07-24T00:30:32;9.32;;;8.40;;
1829;SDS011;914;48.118;11.600;2022-07-24T00:32:58;8.73;;;7.85;;
1829;SDS011;914;48.118;11.600;2022-07-24T00:35:24;9.10;;;8.20;;
1829;SDS011;914;48.118;11.600;2022-07-24T00:37:49;8.57;;;7.88;;
1829;SDS011;914;48.118;11.600;2022-07-24T00:40:15;8.82;;;8.00;;
1829;SDS011;914;48.118;11.600;2022-07-24T00:42:42;8.05;;;7.43;;
1829;SDS011;914;48.118;11.600;2022-07-24T00:45:08;8.43;;;7.53;;
1829;SDS011;914;48.118;11.600;2022-07-24T00:47:34;8.15;;;7.43;;
1829;SDS011;914;48.118;11.600;2022-07-24T00:50:01;8.50;;;7.70;;
1829;SDS011;914;48.118;11.600;2022-07-24T00:52:29;8.98;;;8.20;;
1829;SDS011;914;48.118;11.600;2022-07-24T00:54:55;8.50;;;7.72;;
1829;SDS011;914;48.118;11.600;2022-07-24T00:57:20;7.68;;;7.07;;
1829;SDS011;914;48.118;11.600;2022-07-24T00:59:46;8.00;;;7.20;;
1829;SDS011;914;48.118;11.600;2022-07-24T01:02:12;7.45;;;6.82;;
1829;SDS011;914;48.118;11.600;2022-07-24T01:04:38;7.95;;;7.25;;
1829;SDS011;914;48.118;11.600;2022-07-24T01:07:04;7.72;;;7.10;;
1829;SDS011;914;48.118;11.600;2022-07-24T01:09:30;9.20;;;7.15;;
1829;SDS011;914;48.118;11.600;2022-07-24T01:11:56;7.88;;;7.20;;
1829;SDS011;914;48.118;11.600;2022-07-24T01:14:23;8.95;;;8.07;;
1829;SDS011;914;48.118;11.600;2022-07-24T01:16:50;8.60;;;7.85;;
1829;SDS011;914;48.118;11.600;2022-07-24T01:19:16;7.68;;;7.00;;
1829;SDS011;914;48.118;11.600;2022-07-24T01:21:48;9.20;;;7.88;;
1829;SDS011;914;48.118;11.600;2022-07-24T01:24:15;7.93;;;7.22;;
1829;SDS011;914;48.118;11.600;2022-07-24T01:26:42;7.82;;;7.13;;
1829;SDS011;914;48.118;11.600;2022-07-24T01:29:07;8.57;;;7.78;;
1829;SDS011;914;48.118;11.600;2022-07-24T01:31:33;7.90;;;7.20;;
1829;SDS011;914;48.118;11.600;2022-07-24T01:33:59;8.32;;;7.63;;
1829;SDS011;914;48.118;11.600;2022-07-24T01:36:24;7.78;;;7.07;;
1829;SDS011;914;48.118;11.600;2022-07-24T01:38:50;9.07;;;8.27;;
1829;SDS011;914;48.118;11.600;2022-07-24T01:41:16;8.13;;;7.43;;
1829;SDS011;914;48.118;11.600;2022-07-24T01:43:42;7.93;;;7.13;;
1829;SDS011;914;48.118;11.600;2022-07-24T01:46:08;7.53;;;6.93;;
1829;SDS011;914;48.118;11.600;2022-07-24T01:48:34;8.10;;;7.40;;
1829;SDS011;914;48.118;11.600;2022-07-24T01:51:00;8.57;;;7.78;;
1829;SDS011;914;48.118;11.600;2022-07-24T01:53:26;7.90;;;7.30;;
1829;SDS011;914;48.118;11.600;2022-07-24T01:55:52;8.10;;;7.40;;
1829;SDS011;914;48.118;11.600;2022-07-24T01:58:18;8.65;;;7.85;;
1829;SDS011;914;48.118;11.600;2022-07-24T02:00:44;8.90;;;8.00;;
1829;SDS011;914;48.118;11.600;2022-07-24T02:03:09;9.35;;;8.55;;
1829;SDS011;914;48.118;11.600;2022-07-24T02:05:35;8.20;;;7.47;;
1829;SDS011;914;48.118;11.600;2022-07-24T02:08:01;9.00;;;7.43;;
1829;SDS011;914;48.118;11.600;2022-07-24T02:10:27;8.00;;;7.30;;
1829;SDS011;914;48.118;11.600;2022-07-24T02:12:53;8.93;;;8.05;;
1829;SDS011;914;48.118;11.600;2022-07-24T02:15:20;8.75;;;8.02;;
1829;SDS011;914;48.118;11.600;2022-07-24T02:17:46;8.43;;;7.63;;
1829;SDS011;914;48.118;11.600;2022-07-24T02:20:13;8.52;;;7.82;;
1829;SDS011;914;48.118;11.600;2022-07-24T02:22:39;8.70;;;7.82;;
1829;SDS011;914;48.118;11.600;2022-07-24T02:25:05;8.35;;;7.43;;
1829;SDS011;914;48.118;11.600;2022-07-24T02:27:32;8.50;;;7.68;;
1829;SDS011;914;48.118;11.600;2022-07-24T02:29:58;8.43;;;7.63;;
1829;SDS011;914;48.118;11.600;2022-07-24T02:32:23;8.32;;;7.53;;
1829;SDS011;914;48.118;11.600;2022-07-24T02:34:49;8.52;;;7.82;;
1829;SDS011;914;48.118;11.600;2022-07-24T02:37:16;8.15;;;7.45;;
1829;SDS011;914;48.118;11.600;2022-07-24T02:39:41;7.90;;;7.30;;
1829;SDS011;914;48.118;11.600;2022-07-24T02:42:07;8.65;;;7.85;;
1829;SDS011;914;48.118;11.600;2022-07-24T02:44:33;9.88;;;8.07;;
1829;SDS011;914;48.118;11.600;2022-07-24T02:46:59;8.70;;;8.00;;
1829;SDS011;914;48.118;11.600;2022-07-24T02:49:24;9.68;;;8.80;;
1829;SDS011;914;48.118;11.600;2022-07-24T02:51:50;9.15;;;8.25;;
1829;SDS011;914;48.118;11.600;2022-07-24T02:54:15;9.40;;;8.50;;
1829;SDS011;914;48.118;11.600;2022-07-24T02:56:42;8.80;;;8.00;;
1829;SDS011;914;48.118;11.600;2022-07-24T02:59:08;8.15;;;7.35;;
1829;SDS011;914;48.118;11.600;2022-07-24T03:01:33;9.35;;;8.45;;
1829;SDS011;914;48.118;11.600;2022-07-24T03:03:59;8.68;;;7.88;;
1829;SDS011;914;48.118;11.600;2022-07-24T03:06:25;8.95;;;8.15;;
1829;SDS011;914;48.118;11.600;2022-07-24T03:08:50;8.98;;;8.25;;
1829;SDS011;914;48.118;11.600;2022-07-24T03:11:16;8.55;;;7.85;;
1829;SDS011;914;48.118;11.600;2022-07-24T03:13:42;8.70;;;8.00;;
1829;SDS011;914;48.118;11.600;2022-07-24T03:16:07;9.32;;;8.52;;
1829;SDS011;914;48.118;11.600;2022-07-24T03:18:33;10.45;;;8.30;;
1829;SDS011;914;48.118;11.600;2022-07-24T03:20:59;9.23;;;8.35;;
1829;SDS011;914;48.118;11.600;2022-07-24T03:23:25;9.35;;;8.45;;
1829;SDS011;914;48.118;11.600;2022-07-24T03:25:50;9.10;;;7.82;;
1829;SDS011;914;48.118;11.600;2022-07-24T03:28:17;9.10;;;8.30;;
1829;SDS011;914;48.118;11.600;2022-07-24T03:30:43;8.52;;;7.80;;
1829;SDS011;914;48.118;11.600;2022-07-24T03:33:09;8.65;;;7.85;;
1829;SDS011;914;48.118;11.600;2022-07-24T03:35:34;8.70;;;8.00;;
1829;SDS011;914;48.118;11.600;2022-07-24T03:38:00;9.65;;;8.85;;
1829;SDS011;914;48.118;11.600;2022-07-24T03:40:26;9.35;;;8.50;;
1829;SDS011;914;48.118;11.600;2022-07-24T03:42:51;9.23;;;8.43;;
1829;SDS011;914;48.118;11.600;2022-07-24T03:45:17;10.00;;;9.10;;
1829;SDS011;914;48.118;11.600;2022-07-24T03:47:42;8.80;;;8.10;;
1829;SDS011;914;48.118;11.600;2022-07-24T03:50:08;9.80;;;8.98;;
1829;SDS011;914;48.118;11.600;2022-07-24T03:52:34;10.02;;;9.13;;
1829;SDS011;914;48.118;11.600;2022-07-24T03:54:59;9.80;;;8.90;;
1829;SDS011;914;48.118;11.600;2022-07-24T03:57:25;9.48;;;8.68;;
1829;SDS011;914;48.118;11.600;2022-07-24T03:59:51;9.68;;;8.80;;
1829;SDS011;914;48.118;11.600;2022-07-24T04:02:17;9.90;;;9.10;;
1829;SDS011;914;48.118;11.600;2022-07-24T04:04:43;10.17;;;9.17;;
1829;SDS011;914;48.118;11.600;2022-07-24T04:07:09;9.77;;;8.88;;
1829;SDS011;914;48.118;11.600;2022-07-24T04:09:34;9.10;;;8.30;;
1829;SDS011;914;48.118;11.600;2022-07-24T04:12:00;9.52;;;8.63;;
1829;SDS011;914;48.118;11.600;2022-07-24T04:14:26;9.60;;;8.70;;
1829;SDS011;914;48.118;11.600;2022-07-24T04:16:51;10.20;;;9.23;;
1829;SDS011;914;48.118;11.600;2022-07-24T04:19:17;10.75;;;9.75;;
1829;SDS011;914;48.118;11.600;2022-07-24T04:21:43;10.73;;;9.75;;
1829;SDS011;914;48.118;11.600;2022-07-24T04:24:08;10.38;;;9.35;;
1829;SDS011;914;48.118;11.600;2022-07-24T04:26:34;10.70;;;9.80;;
1829;SDS011;914;48.118;11.600;2022-07-24T04:28:59;10.75;;;9.75;;
1829;SDS011;914;48.118;11.600;2022-07-24T04:31:25;11.20;;;10.10;;
1829;SDS011;914;48.118;11.600;2022-07-24T04:33:50;10.70;;;9.80;;
1829;SDS011;914;48.118;11.600;2022-07-24T04:36:16;10.95;;;9.95;;
1829;SDS011;914;48.118;11.600;2022-07-24T04:38:42;11.35;;;10.10;;
1829;SDS011;914;48.118;11.600;2022-07-24T04:41:08;11.73;;;10.63;;
1829;SDS011;914;48.118;11.600;2022-07-24T04:43:34;11.52;;;10.52;;
1829;SDS011;914;48.118;11.600;2022-07-24T04:45:59;10.82;;;9.73;;
1829;SDS011;914;48.118;11.600;2022-07-24T04:48:25;11.45;;;10.45;;
1829;SDS011;914;48.118;11.600;2022-07-24T04:50:51;11.32;;;10.32;;
1829;SDS011;914;48.118;11.600;2022-07-24T04:53:17;11.40;;;10.27;;
1829;SDS011;914;48.118;11.600;2022-07-24T04:55:42;11.27;;;10.18;;
1829;SDS011;914;48.118;11.600;2022-07-24T04:58:08;10.98;;;9.95;;
1829;SDS011;914;48.118;11.600;2022-07-24T05:00:34;11.38;;;10.27;;
1829;SDS011;914;48.118;11.600;2022-07-24T05:02:59;10.63;;;9.73;;
1829;SDS011;914;48.118;11.600;2022-07-24T05:05:25;11.40;;;10.30;;
1829;SDS011;914;48.118;11.600;2022-07-24T05:07:51;10.48;;;9.57;;
1829;SDS011;914;48.118;11.600;2022-07-24T05:10:16;12.05;;;10.95;;
1829;SDS011;914;48.118;11.600;2022-07-24T05:12:42;11.55;;;10.50;;
1829;SDS011;914;48.118;11.600;2022-07-24T05:15:07;11.13;;;10.18;;
1829;SDS011;914;48.118;11.600;2022-07-24T05:17:34;10.82;;;9.73;;
1829;SDS011;914;48.118;11.600;2022-07-24T05:20:01;12.43;;;11.13;;
1829;SDS011;914;48.118;11.600;2022-07-24T05:22:27;12.60;;;11.40;;
1829;SDS011;914;48.118;11.600;2022-07-24T05:24:53;11.20;;;10.10;;
1829;SDS011;914;48.118;11.600;2022-07-24T05:27:18;11.18;;;10.07;;
1829;SDS011;914;48.118;11.600;2022-07-24T05:29:44;11.90;;;10.70;;
1829;SDS011;914;48.118;11.600;2022-07-24T05:32:11;12.27;;;11.07;;
1829;SDS011;914;48.118;11.600;2022-07-24T05:34:37;11.05;;;10.05;;
1829;SDS011;914;48.118;11.600;2022-07-24T05:37:03;11.40;;;10.30;;
1829;SDS011;914;48.118;11.600;2022-07-24T05:39:29;11.75;;;10.35;;
1829;SDS011;914;48.118;11.600;2022-07-24T05:41:55;12.32;;;11.20;;
1829;SDS011;914;48.118;11.600;2022-07-24T05:44:20;11.05;;;10.05;;
1829;SDS011;914;48.118;11.600;2022-07-24T05:46:46;11.80;;;10.77;;
1829;SDS011;914;48.118;11.600;2022-07-24T05:49:12;11.20;;;10.30;;
1829;SDS011;914;48.118;11.600;2022-07-24T05:51:38;13.93;;;11.43;;
1829;SDS011;914;48.118;11.600;2022-07-24T05:54:03;12.30;;;11.10;;
1829;SDS011;914;48.118;11.600;2022-07-24T05:56:29;11.27;;;10.25;;
1829;SDS011;914;48.118;11.600;2022-07-24T05:58:55;12.00;;;10.90;;
1829;SDS011;914;48.118;11.600;2022-07-24T06:01:21;12.65;;;11.45;;
1829;SDS011;914;48.118;11.600;2022-07-24T06:03:47;11.70;;;10.73;;
1829;SDS011;914;48.118;11.600;2022-07-24T06:06:12;12.45;;;11.30;;
1829;SDS011;914;48.118;11.600;2022-07-24T06:08:38;12.23;;;11.15;;
1829;SDS011;914;48.118;11.600;2022-07-24T06:11:04;13.82;;;11.32;;
1829;SDS011;914;48.118;11.600;2022-07-24T06:13:30;11.82;;;10.82;;
1829;SDS011;914;48.118;11.600;2022-07-24T06:15:55;12.38;;;11.10;;
1829;SDS011;914;48.118;11.600;2022-07-24T06:18:21;12.63;;;11.35;;
1829;SDS011;914;48.118;11.600;2022-07-24T06:20:46;12.15;;;11.15;;
1829;SDS011;914;48.118;11.600;2022-07-24T06:23:12;10.95;;;9.95;;
1829;SDS011;914;48.118;11.600;2022-07-24T06:25:38;11.90;;;10.50;;
1829;SDS011;914;48.118;11.600;2022-07-24T06:28:03;12.23;;;11.02;;
1829;SDS011;914;48.118;11.600;2022-07-24T06:30:29;10.63;;;9.73;;
1829;SDS011;914;48.118;11.600;2022-07-24T06:32:55;11.38;;;10.27;;
1829;SDS011;914;48.118;11.600;2022-07-24T06:35:22;11.23;;;10.23;;
1829;SDS011;914;48.118;11.600;2022-07-24T06:37:48;11.75;;;10.75;;
1829;SDS011;914;48.118;11.600;2022-07-24T06:40:15;10.55;;;9.65;;
1829;SDS011;914;48.118;11.600;2022-07-24T06:42:43;11.35;;;10.27;;
1829;SDS011;914;48.118;11.600;2022-07-24T06:45:09;10.88;;;9.88;;
1829;SDS011;914;48.118;11.600;2022-07-24T06:47:35;11.63;;;9.75;;
1829;SDS011;914;48.118;11.600;2022-07-24T06:50:01;9.65;;;8.85;;
1829;SDS011;914;48.118;11.600;2022-07-24T06:52:27;14.48;;;10.68;;
1829;SDS011;914;48.118;11.600;2022-07-24T06:54:53;10.07;;;9.18;;
1829;SDS011;914;48.118;11.600;2022-07-24T06:57:19;11.27;;;10.25;;
1829;SDS011;914;48.118;11.600;2022-07-24T06:59:44;9.13;;;8.32;;
1829;SDS011;914;48.118;11.600;2022-07-24T07:02:10;8.70;;;7.90;;
1829;SDS011;914;48.118;11.600;2022-07-24T07:04:36;9.38;;;8.52;;
1829;SDS011;914;48.118;11.600;2022-07-24T07:07:02;8.60;;;7.80;;
1829;SDS011;914;48.118;11.600;2022-07-24T07:09:28;8.77;;;8.05;;
1829;SDS011;914;48.118;11.600;2022-07-24T07:11:54;7.63;;;7.03;;
1829;SDS011;914;48.118;11.600;2022-07-24T07:14:20;9.45;;;8.63;;
1829;SDS011;914;48.118;11.600;2022-07-24T07:16:45;8.80;;;8.00;;
1829;SDS011;914;48.118;11.600;2022-07-24T07:19:11;8.68;;;7.97;;
1829;SDS011;914;48.118;11.600;2022-07-24T07:21:37;8.73;;;7.93;;
1829;SDS011;914;48.118;11.600;2022-07-24T07:24:03;8.20;;;7.47;;
1829;SDS011;914;48.118;11.600;2022-07-24T07:26:29;9.05;;;7.45;;
1829;SDS011;914;48.118;11.600;2022-07-24T07:28:55;9.70;;;7.53;;
1829;SDS011;914;48.118;11.600;2022-07-24T07:31:21;8.40;;;7.60;;
1829;SDS011;914;48.118;11.600;2022-07-24T07:33:47;10.25;;;7.38;;
1829;SDS011;914;48.118;11.600;2022-07-24T07:36:12;8.75;;;7.85;;
1829;SDS011;914;48.118;11.600;2022-07-24T07:38:38;10.02;;;7.03;;
1829;SDS011;914;48.118;11.600;2022-07-24T07:41:05;7.28;;;6.43;;
1829;SDS011;914;48.118;11.600;2022-07-24T07:43:31;8.27;;;6.90;;
1829;SDS011;914;48.118;11.600;2022-07-24T07:45:57;8.38;;;6.97;;
1829;SDS011;914;48.118;11.600;2022-07-24T07:48:22;7.07;;;6.53;;
1829;SDS011;914;48.118;11.600;2022-07-24T07:50:48;7.30;;;6.60;;
1829;SDS011;914;48.118;11.600;2022-07-24T07:53:13;8.63;;;6.75;;
1829;SDS011;914;48.118;11.600;2022-07-24T07:55:39;10.07;;;7.20;;
1829;SDS011;914;48.118;11.600;2022-07-24T07:58:05;7.68;;;6.88;;
1829;SDS011;914;48.118;11.600;2022-07-24T08:00:31;7.10;;;6.50;;
1829;SDS011;914;48.118;11.600;2022-07-24T08:02:58;7.22;;;6.20;;
1829;SDS011;914;48.118;11.600;2022-07-24T08:05:23;8.27;;;5.97;;
1829;SDS011;914;48.118;11.600;2022-07-24T08:07:49;8.85;;;6.97;;
1829;SDS011;914;48.118;11.600;2022-07-24T08:10:14;9.63;;;6.38;;
1829;SDS011;914;48.118;11.600;2022-07-24T08:12:40;8.65;;;6.30;;
1829;SDS011;914;48.118;11.600;2022-07-24T08:15:06;7.68;;;6.60;;
1829;SDS011;914;48.118;11.600;2022-07-24T08:17:32;6.70;;;6.10;;
1829;SDS011;914;48.118;11.600;2022-07-24T08:19:58;7.10;;;6.43;;
1829;SDS011;914;48.118;11.600;2022-07-24T08:22:24;7.97;;;6.57;;
1829;SDS011;914;48.118;11.600;2022-07-24T08:24:49;7.25;;;6.05;;
1829;SDS011;914;48.118;11.600;2022-07-24T08:27:15;7.30;;;6.28;;
1829;SDS011;914;48.118;11.600;2022-07-24T08:29:40;6.80;;;6.20;;
1829;SDS011;914;48.118;11.600;2022-07-24T08:32:06;7.55;;;6.57;;
1829;SDS011;914;48.118;11.600;2022-07-24T08:34:32;8.82;;;6.05;;
1829;SDS011;914;48.118;11.600;2022-07-24T08:36:57;6.80;;;6.20;;
1829;SDS011;914;48.118;11.600;2022-07-24T08:39:23;7.00;;;6.30;;
1829;SDS011;914;48.118;11.600;2022-07-24T08:41:48;9.90;;;7.00;;
1829;SDS011;914;48.118;11.600;2022-07-24T08:44:14;8.57;;;6.45;;
1829;SDS011;914;48.118;11.600;2022-07-24T08:46:40;6.63;;;6.03;;
1829;SDS011;914;48.118;11.600;2022-07-24T08:49:11;7.53;;;6.70;;
1829;SDS011;914;48.118;11.600;2022-07-24T08:51:40;6.75;;;6.25;;
1829;SDS011;914;48.118;11.600;2022-07-24T08:54:07;6.72;;;6.13;;
1829;SDS011;914;48.118;11.600;2022-07-24T08:56:34;7.03;;;6.30;;
1829;SDS011;914;48.118;11.600;2022-07-24T08:59:03;9.25;;;6.78;;
1829;SDS011;914;48.118;11.600;2022-07-24T09:01:29;6.82;;;6.18;;
1829;SDS011;914;48.118;11.600;2022-07-24T09:03:55;7.00;;;6.40;;
1829;SDS011;914;48.118;11.600;2022-07-24T09:06:21;6.57;;;5.85;;
1829;SDS011;914;48.118;11.600;2022-07-24T09:08:56;6.82;;;6.03;;
1829;SDS011;914;48.118;11.600;2022-07-24T09:11:24;7.60;;;6.90;;
1829;SDS011;914;48.118;11.600;2022-07-24T09:13:53;7.22;;;6.63;;
1829;SDS011;914;48.118;11.600;2022-07-24T09:16:42;9.85;;;7.32;;
1829;SDS011;914;48.118;11.600;2022-07-24T09:19:08;7.25;;;6.65;;
1829;SDS011;914;48.118;11.600;2022-07-24T09:21:36;7.50;;;6.80;;
1829;SDS011;914;48.118;11.600;2022-07-24T09:24:22;7.85;;;7.00;;
1829;SDS011;914;48.118;11.600;2022-07-24T09:26:51;7.22;;;6.53;;
1829;SDS011;914;48.118;11.600;2022-07-24T09:29:21;6.95;;;6.45;;
1829;SDS011;914;48.118;11.600;2022-07-24T09:31:55;6.70;;;6.20;;
1829;SDS011;914;48.118;11.600;2022-07-24T09:34:27;9.38;;;6.53;;
1829;SDS011;914;48.118;11.600;2022-07-24T09:36:58;6.85;;;6.20;;
1829;SDS011;914;48.118;11.600;2022-07-24T09:39:30;7.15;;;6.47;;
1829;SDS011;914;48.118;11.600;2022-07-24T09:41:57;7.63;;;6.50;;
1829;SDS011;914;48.118;11.600;2022-07-24T09:44:23;6.60;;;6.00;;
1829;SDS011;914;48.118;11.600;2022-07-24T09:46:57;7.15;;;6.43;;
1829;SDS011;914;48.118;11.600;2022-07-24T09:49:28;7.65;;;6.20;;
1829;SDS011;914;48.118;11.600;2022-07-24T09:52:16;8.07;;;6.07;;
1829;SDS011;914;48.118;11.600;2022-07-24T09:54:47;8.13;;;6.53;;
1829;SDS011;914;48.118;11.600;2022-07-24T09:57:25;7.10;;;6.45;;
1829;SDS011;914;48.118;11.600;2022-07-24T09:59:56;6.78;;;6.18;;
1829;SDS011;914;48.118;11.600;2022-07-24T10:02:24;7.57;;;6.50;;
1829;SDS011;914;48.118;11.600;2022-07-24T10:04:56;6.97;;;6.10;;
1829;SDS011;914;48.118;11.600;2022-07-24T10:07:23;6.97;;;6.32;;
1829;SDS011;914;48.118;11.600;2022-07-24T10:09:55;7.38;;;6.65;;
1829;SDS011;914;48.118;11.600;2022-07-24T10:12:24;7.97;;;6.07;;
1829;SDS011;914;48.118;11.600;2022-07-24T10:14:52;6.57;;;5.70;;
1829;SDS011;914;48.118;11.600;2022-07-24T10:17:18;6.82;;;6.22;;
1829;SDS011;914;48.118;11.600;2022-07-24T10:19:46;6.80;;;5.97;;
1829;SDS011;914;48.118;11.600;2022-07-24T10:22:16;8.82;;;6.60;;
1829;SDS011;914;48.118;11.600;2022-07-24T10:27:23;6.97;;;5.82;;
1829;SDS011;914;48.118;11.600;2022-07-24T10:29:51;6.70;;;5.80;;
1829;SDS011;914;48.118;11.600;2022-07-24T10:32:18;6.30;;;5.80;;
1829;SDS011;914;48.118;11.600;2022-07-24T10:34:49;8.57;;;6.35;;
1829;SDS011;914;48.118;11.600;2022-07-24T10:45:34;7.05;;;6.45;;
1829;SDS011;914;48.118;11.600;2022-07-24T10:53:59;8.57;;;6.40;;
1829;SDS011;914;48.118;11.600;2022-07-24T10:58:54;9.38;;;6.15;;
1829;SDS011;914;48.118;11.600;2022-07-24T11:01:35;6.63;;;5.90;;
1829;SDS011;914;48.118;11.600;2022-07-24T11:04:03;6.57;;;5.97;;
1829;SDS011;914;48.118;11.600;2022-07-24T11:06:59;6.40;;;5.85;;
1829;SDS011;914;48.118;11.600;2022-07-24T11:09:36;7.22;;;6.20;;
1829;SDS011;914;48.118;11.600;2022-07-24T11:12:28;8.05;;;6.30;;
1829;SDS011;914;48.118;11.600;2022-07-24T11:14:59;6.22;;;5.78;;
1829;SDS011;914;48.118;11.600;2022-07-24T11:17:45;6.63;;;5.93;;
1829;SDS011;914;48.118;11.600;2022-07-24T11:20:22;7.50;;;6.30;;
1829;SDS011;914;48.118;11.600;2022-07-24T11:22:49;6.65;;;6.05;;
1829;SDS011;914;48.118;11.600;2022-07-24T11:25:15;6.68;;;6.07;;
1829;SDS011;914;48.118;11.600;2022-07-24T11:30:33;6.50;;;5.95;;
1829;SDS011;914;48.118;11.600;2022-07-24T11:32:59;6.40;;;5.90;;
1829;SDS011;914;48.118;11.600;2022-07-24T11:35:35;6.18;;;5.68;;
1829;SDS011;914;48.118;11.600;2022-07-24T11:38:02;6.45;;;5.95;;
1829;SDS011;914;48.118;11.600;2022-07-24T11:40:30;6.53;;;5.90;;
1829;SDS011;914;48.118;11.600;2022-07-24T11:42:57;6.35;;;5.47;;
1829;SDS011;914;48.118;11.600;2022-07-24T11:45:24;9.25;;;6.53;;
1829;SDS011;914;48.118;11.600;2022-07-24T11:47:50;6.75;;;6.15;;
1829;SDS011;914;48.118;11.600;2022-07-24T11:50:19;6.80;;;6.10;;
1829;SDS011;914;48.118;11.600;2022-07-24T11:52:46;6.80;;;5.88;;
1829;SDS011;914;48.118;11.600;2022-07-24T11:55:13;6.25;;;5.70;;
1829;SDS011;914;48.118;11.600;2022-07-24T11:57:42;6.97;;;5.68;;
1829;SDS011;914;48.118;11.600;2022-07-24T12:00:10;6.22;;;5.63;;
1829;SDS011;914;48.118;11.600;2022-07-24T12:02:45;6.60;;;6.00;;
1829;SDS011;914;48.118;11.600;2022-07-24T12:05:12;6.28;;;5.78;;
1829;SDS011;914;48.118;11.600;2022-07-24T12:07:39;6.25;;;5.75;;
1829;SDS011;914;48.118;11.600;2022-07-24T12:10:04;7.18;;;5.72;;
1829;SDS011;914;48.118;11.600;2022-07-24T12:12:32;6.20;;;5.70;;
1829;SDS011;914;48.118;11.600;2022-07-24T12:15:03;6.43;;;5.82;;
1829;SDS011;914;48.118;11.600;2022-07-24T12:20:29;5.85;;;5.32;;
1829;SDS011;914;48.118;11.600;2022-07-24T12:23:01;5.82;;;5.32;;
1829;SDS011;914;48.118;11.600;2022-07-24T12:25:30;6.20;;;5.70;;
1829;SDS011;914;48.118;11.600;2022-07-24T12:28:04;6.28;;;5.78;;
1829;SDS011;914;48.118;11.600;2022-07-24T12:30:31;7.07;;;5.80;;
1829;SDS011;914;48.118;11.600;2022-07-24T12:33:04;6.65;;;5.90;;
1829;SDS011;914;48.118;11.600;2022-07-24T12:36:14;5.85;;;5.35;;
1829;SDS011;914;48.118;11.600;2022-07-24T12:38:25;6.18;;;5.57;;
1829;SDS011;914;48.118;11.600;2022-07-24T12:41:12;6.07;;;5.45;;
1829;SDS011;914;48.118;11.600;2022-07-24T12:46:11;5.90;;;5.40;;
1829;SDS011;914;48.118;11.600;2022-07-24T12:48:37;6.47;;;5.80;;
1829;SDS011;914;48.118;11.600;2022-07-24T12:51:08;6.18;;;5.50;;
1829;SDS011;914;48.118;11.600;2022-07-24T12:53:36;6.18;;;5.38;;
1829;SDS011;914;48.118;11.600;2022-07-24T13:01:17;6.50;;;5.40;;
1829;SDS011;914;48.118;11.600;2022-07-24T13:03:51;6.53;;;5.40;;
1829;SDS011;914;48.118;11.600;2022-07-24T13:06:18;6.07;;;5.47;;
1829;SDS011;914;48.118;11.600;2022-07-24T13:08:55;5.82;;;5.40;;
1829;SDS011;914;48.118;11.600;2022-07-24T13:11:20;6.10;;;5.50;;
1829;SDS011;914;48.118;11.600;2022-07-24T13:13:46;7.10;;;6.50;;
1829;SDS011;914;48.118;11.600;2022-07-24T13:16:12;6.28;;;5.78;;
1829;SDS011;914;48.118;11.600;2022-07-24T13:18:38;9.50;;;6.82;;
1829;SDS011;914;48.118;11.600;2022-07-24T13:21:03;11.88;;;10.73;;
1829;SDS011;914;48.118;11.600;2022-07-24T13:23:29;13.00;;;11.63;;
1829;SDS011;914;48.118;11.600;2022-07-24T13:25:55;36.03;;;32.13;;
1829;SDS011;914;48.118;11.600;2022-07-24T13:28:21;6.20;;;5.70;;
1829;SDS011;914;48.118;11.600;2022-07-24T13:30:46;6.13;;;5.63;;
1829;SDS011;914;48.118;11.600;2022-07-24T13:33:12;5.88;;;5.40;;
1829;SDS011;914;48.118;11.600;2022-07-24T13:35:38;6.03;;;5.53;;
1829;SDS011;914;48.118;11.600;2022-07-24T13:38:03;6.57;;;5.40;;
1829;SDS011;914;48.118;11.600;2022-07-24T13:40:29;6.28;;;5.25;;
1829;SDS011;914;48.118;11.600;2022-07-24T13:42:54;7.75;;;5.57;;
1829;SDS011;914;48.118;11.600;2022-07-24T13:45:20;5.45;;;5.03;;
1829;SDS011;914;48.118;11.600;2022-07-24T13:47:47;5.97;;;5.32;;
1829;SDS011;914;48.118;11.600;2022-07-24T13:50:12;5.60;;;5.10;;
1829;SDS011;914;48.118;11.600;2022-07-24T13:52:38;5.68;;;5.18;;
1829;SDS011;914;48.118;11.600;2022-07-24T13:55:05;5.63;;;5.15;;
1829;SDS011;914;48.118;11.600;2022-07-24T13:57:31;5.95;;;5.45;;
1829;SDS011;914;48.118;11.600;2022-07-24T13:59:56;5.93;;;5.35;;
1829;SDS011;914;48.118;11.600;2022-07-24T14:02:22;6.07;;;5.68;;
1829;SDS011;914;48.118;11.600;2022-07-24T14:04:48;5.93;;;5.32;;
1829;SDS011;914;48.118;11.600;2022-07-24T14:07:13;6.20;;;5.68;;
1829;SDS011;914;48.118;11.600;2022-07-24T14:09:39;6.50;;;5.35;;
1829;SDS011;914;48.118;11.600;2022-07-24T14:12:05;5.90;;;5.40;;
1829;SDS011;914;48.118;11.600;2022-07-24T14:14:31;6.05;;;5.53;;
1829;SDS011;914;48.118;11.600;2022-07-24T14:16:56;5.70;;;5.20;;
1829;SDS011;914;48.118;11.600;2022-07-24T14:19:22;5.82;;;5.18;;
1829;SDS011;914;48.118;11.600;2022-07-24T14:21:48;8.35;;;5.68;;
1829;SDS011;914;48.118;11.600;2022-07-24T14:24:17;5.97;;;5.45;;
1829;SDS011;914;48.118;11.600;2022-07-24T14:26:44;6.85;;;5.07;;
1829;SDS011;914;48.118;11.600;2022-07-24T14:29:11;6.00;;;5.47;;
1829;SDS011;914;48.118;11.600;2022-07-24T14:31:37;6.90;;;5.25;;
1829;SDS011;914;48.118;11.600;2022-07-24T14:34:03;6.95;;;5.22;;
1829;SDS011;914;48.118;11.600;2022-07-24T14:36:28;5.75;;;5.25;;
1829;SDS011;914;48.118;11.600;2022-07-24T14:38:54;6.90;;;5.30;;
1829;SDS011;914;48.118;11.600;2022-07-24T14:41:20;5.80;;;5.30;;
1829;SDS011;914;48.118;11.600;2022-07-24T14:43:45;5.70;;;5.30;;
1829;SDS011;914;48.118;11.600;2022-07-24T14:46:11;6.45;;;5.47;;
1829;SDS011;914;48.118;11.600;2022-07-24T14:48:37;5.95;;;5.32;;
1829;SDS011;914;48.118;11.600;2022-07-24T14:51:02;6.13;;;5.40;;
1829;SDS011;914;48.118;11.600;2022-07-24T14:53:28;6.28;;;5.60;;
1829;SDS011;914;48.118;11.600;2022-07-24T14:55:54;6.60;;;5.63;;
1829;SDS011;914;48.118;11.600;2022-07-24T14:58:19;5.72;;;5.32;;
1829;SDS011;914;48.118;11.600;2022-07-24T15:00:45;5.45;;;4.95;;
1829;SDS011;914;48.118;11.600;2022-07-24T15:03:13;5.75;;;5.15;;
1829;SDS011;914;48.118;11.600;2022-07-24T15:05:39;6.20;;;5.70;;
1829;SDS011;914;48.118;11.600;2022-07-24T15:08:05;6.18;;;5.60;;
1829;SDS011;914;48.118;11.600;2022-07-24T15:10:30;6.38;;;5.78;;
1829;SDS011;914;48.118;11.600;2022-07-24T15:12:56;6.30;;;5.43;;
1829;SDS011;914;48.118;11.600;2022-07-24T15:15:22;6.20;;;5.60;;
1829;SDS011;914;48.118;11.600;2022-07-24T15:17:47;6.15;;;5.65;;
1829;SDS011;914;48.118;11.600;2022-07-24T15:20:13;5.43;;;5.03;;
1829;SDS011;914;48.118;11.600;2022-07-24T15:22:38;6.03;;;5.40;;
1829;SDS011;914;48.118;11.600;2022-07-24T15:25:04;5.82;;;5.32;;
1829;SDS011;914;48.118;11.600;2022-07-24T15:27:30;6.05;;;5.40;;
1829;SDS011;914;48.118;11.600;2022-07-24T15:29:56;6.00;;;5.40;;
1829;SDS011;914;48.118;11.600;2022-07-24T15:32:22;6.82;;;5.20;;
1829;SDS011;914;48.118;11.600;2022-07-24T15:34:47;6.07;;;5.53;;
1829;SDS011;914;48.118;11.600;2022-07-24T15:37:13;6.13;;;5.50;;
1829;SDS011;914;48.118;11.600;2022-07-24T15:39:39;6.05;;;5.55;;
1829;SDS011;914;48.118;11.600;2022-07-24T15:42:04;6.80;;;6.07;;